Orbital elements of FENGYUN 1C DEB
| Launched | 9 May 1999 |
| Flight ended | – |
| Launch site | Taiyuan Space Center, PRC |
| Owner | People's Republic of China |
| NORAD ID | 46987 |
| Date fetched |
Epoch osculation |
Inc. [°] |
Ecc. | RA asc node [hr] |
Arg Peri. [°] |
Mean anom [°] |
Mean motion [rev/day] |
Abs. mag |
| Date fetched |
Epoch osculation |
Inc. [°] |
Ecc. | RA asc node [hr] |
Arg Peri. [°] |
Mean anom [°] |
Mean motion [rev/day] |
Abs. mag |
| 2026 May 08 17:57 | 2026 May 02 08:25:22 | 98.9136 | 0.00299 | 17.6505 | 281.1787 | 78.6043 | 14.47088 | – |
| 2026 May 07 17:58 | 2026 May 02 08:25:22 | 98.9136 | 0.00299 | 17.6505 | 281.1787 | 78.6043 | 14.47088 | – |
| 2026 May 06 17:57 | 2026 May 02 08:25:22 | 98.9136 | 0.00299 | 17.6505 | 281.1787 | 78.6043 | 14.47088 | – |
| 2026 May 05 17:57 | 2026 May 02 08:25:22 | 98.9136 | 0.00299 | 17.6505 | 281.1787 | 78.6043 | 14.47088 | – |
| 2026 May 04 17:57 | 2026 Apr 27 15:34:36 | 98.9126 | 0.00295 | 17.3206 | 295.9253 | 78.6043 | 14.47088 | – |
| 2026 May 03 17:57 | 2026 Apr 27 15:34:36 | 98.9126 | 0.00295 | 17.3206 | 295.9253 | 78.6043 | 14.47088 | – |
| 2026 May 02 17:57 | 2026 Apr 27 15:34:36 | 98.9126 | 0.00295 | 17.3206 | 295.9253 | 78.6043 | 14.47088 | – |
| 2026 May 01 17:56 | 2026 Apr 27 15:34:36 | 98.9126 | 0.00295 | 17.3206 | 295.9253 | 78.6043 | 14.47088 | – |
| 2026 Apr 30 17:56 | 2026 Apr 27 15:34:36 | 98.9126 | 0.00295 | 17.3206 | 295.9253 | 78.6043 | 14.47088 | – |
| 2026 Apr 29 17:57 | 2026 Apr 22 14:25:35 | 98.9131 | 0.00293 | 16.9665 | 311.8099 | 78.6043 | 14.47088 | – |
| 2026 Apr 28 17:56 | 2026 Apr 22 14:25:35 | 98.9131 | 0.00293 | 16.9665 | 311.8099 | 78.6043 | 14.47088 | – |
| 2026 Apr 27 17:58 | 2026 Apr 22 14:25:35 | 98.9131 | 0.00293 | 16.9665 | 311.8099 | 78.6043 | 14.47088 | – |
| 2026 Apr 26 17:58 | 2026 Apr 22 14:25:35 | 98.9131 | 0.00293 | 16.9665 | 311.8099 | 78.6043 | 14.47088 | – |
| 2026 Apr 25 17:58 | 2026 Apr 22 14:25:35 | 98.9131 | 0.00293 | 16.9665 | 311.8099 | 78.6043 | 14.47088 | – |
| 2026 Apr 24 17:59 | 2026 Apr 22 14:25:35 | 98.9131 | 0.00293 | 16.9665 | 311.8099 | 78.6043 | 14.47088 | – |
| 2026 Apr 23 17:57 | 2026 Apr 17 08:17:31 | 98.9120 | 0.00293 | 16.5978 | 328.5298 | 78.6043 | 14.47088 | – |
| 2026 Apr 22 17:57 | 2026 Apr 17 08:17:31 | 98.9120 | 0.00293 | 16.5978 | 328.5298 | 78.6043 | 14.47088 | – |
| 2026 Apr 21 17:57 | 2026 Apr 17 08:17:31 | 98.9120 | 0.00293 | 16.5978 | 328.5298 | 78.6043 | 14.47088 | – |
| 2026 Apr 20 17:57 | 2026 Apr 17 08:17:31 | 98.9120 | 0.00293 | 16.5978 | 328.5298 | 78.6043 | 14.47088 | – |
| 2026 Apr 19 17:58 | 2026 Apr 17 08:17:31 | 98.9120 | 0.00293 | 16.5978 | 328.5298 | 78.6043 | 14.47088 | – |
| 2026 Apr 18 17:56 | 2026 Apr 12 15:25:52 | 98.9109 | 0.00294 | 16.2681 | 343.5479 | 78.6043 | 14.47088 | – |
| 2026 Apr 16 17:57 | 2026 Apr 12 15:25:52 | 98.9109 | 0.00294 | 16.2681 | 343.5479 | 78.6043 | 14.47088 | – |
| 2026 Apr 14 17:57 | 2026 Apr 12 15:25:52 | 98.9109 | 0.00294 | 16.2681 | 343.5479 | 78.6043 | 14.47088 | – |
| 2026 Apr 13 17:57 | 2026 Apr 12 15:25:52 | 98.9109 | 0.00294 | 16.2681 | 343.5479 | 78.6043 | 14.47088 | – |
| 2026 Apr 12 17:57 | 2026 Mar 25 15:51:06 | 98.9097 | 0.00303 | 15.0074 | 40.4247 | 78.6043 | 14.47088 | – |
| 2026 Apr 11 17:57 | 2026 Mar 25 15:51:06 | 98.9097 | 0.00303 | 15.0074 | 40.4247 | 78.6043 | 14.47088 | – |